Time;durP1;ratioP1;P1;durP2;ratioP2;P2;SDS_P1;SDS_P2;PMS_P1;PMS_P2;Temp;Humidity;BMP_temperature;BMP_pressure;BME280_temperature;BME280_humidity;BME280_pressure;Samples;Min_cycle;Max_cycle;Signal;HPM_P1;HPM_P2
2024/01/10 00:01:42;;;;;;;136.70;65.10;;;;;;;-10.93;77.00;101708.20;216495;1263;141546;-66
2024/01/10 00:06:45;;;;;;;134.90;60.60;;;;;;;-10.90;77.06;101702.11;216041;1262;140991;-64
2024/01/10 00:11:48;;;;;;;127.20;56.50;;;;;;;-10.90;76.59;101687.34;217129;1267;141893;-63
2024/01/10 00:16:50;;;;;;;119.50;54.10;;;;;;;-10.93;76.45;101684.15;216852;1264;140844;-64
2024/01/10 00:21:53;;;;;;;120.50;52.80;;;;;;;-10.87;76.71;101685.70;215936;1265;141445;-64
2024/01/10 00:26:56;;;;;;;147.80;62.40;;;;;;;-10.82;77.12;101692.24;217230;1266;143099;-65
2024/01/10 00:31:59;;;;;;;155.10;57.20;;;;;;;-10.69;77.14;101690.41;216902;1267;208771;-64
2024/01/10 00:37:01;;;;;;;143.20;62.20;;;;;;;-10.71;76.60;101680.33;215956;1264;140987;-65
2024/01/10 00:42:05;;;;;;;138.50;59.00;;;;;;;-10.72;76.50;101680.20;217118;1262;142845;-64
2024/01/10 00:47:10;;;;;;;161.00;67.10;;;;;;;-10.57;77.29;101681.39;216465;1264;141361;-64
2024/01/10 00:52:15;;;;;;;151.80;66.10;;;;;;;-10.46;76.90;101684.48;217219;1264;142651;-65
2024/01/10 00:57:17;;;;;;;140.40;64.30;;;;;;;-10.37;76.92;101687.06;216760;1264;142206;-63
2024/01/10 01:02:20;;;;;;;146.90;62.30;;;;;;;-10.40;76.78;101681.01;216178;1267;141759;-64
2024/01/10 01:07:23;;;;;;;144.70;64.30;;;;;;;-10.52;76.18;101678.14;217013;1267;144716;-63
2024/01/10 01:12:26;;;;;;;152.40;60.80;;;;;;;-10.53;76.34;101673.71;216029;1265;141768;-63
2024/01/10 01:17:31;;;;;;;140.80;65.00;;;;;;;-10.53;76.86;101670.44;218977;1265;141222;-65
2024/01/10 01:22:35;;;;;;;153.40;65.60;;;;;;;-10.47;76.52;101661.31;218879;1264;141072;-64
2024/01/10 01:27:37;;;;;;;118.20;55.30;;;;;;;-10.41;76.68;101659.02;217450;1265;141073;-63
2024/01/10 01:32:40;;;;;;;142.90;54.70;;;;;;;-10.44;76.00;101654.67;217332;1264;225942;-62
2024/01/10 01:37:43;;;;;;;160.80;63.80;;;;;;;-10.40;76.30;101663.46;217008;1264;141236;-63
2024/01/10 01:42:46;;;;;;;159.70;63.90;;;;;;;-10.36;76.35;101653.34;216609;1264;141293;-66
2024/01/10 01:47:49;;;;;;;161.30;67.50;;;;;;;-10.43;75.90;101655.48;216846;1267;141021;-63
2024/01/10 01:52:52;;;;;;;151.80;62.60;;;;;;;-10.48;76.13;101654.45;216339;1265;140699;-63
2024/01/10 01:57:55;;;;;;;131.10;53.20;;;;;;;-10.51;75.96;101647.02;216182;1267;141702;-65
2024/01/10 02:02:59;;;;;;;138.70;54.10;;;;;;;-10.54;75.76;101645.20;216961;1267;141311;-62
2024/01/10 02:08:03;;;;;;;154.90;55.90;;;;;;;-10.58;76.08;101644.84;216169;1264;140713;-65
2024/01/10 02:13:08;;;;;;;139.40;58.60;;;;;;;-10.52;76.15;101646.52;216886;1265;140951;-64
2024/01/10 02:18:14;;;;;;;135.60;56.10;;;;;;;-10.49;76.03;101640.24;217220;1266;141420;-63
2024/01/10 02:23:18;;;;;;;132.80;52.50;;;;;;;-10.48;76.03;101639.69;216476;1267;141038;-64
2024/01/10 02:28:23;;;;;;;136.80;52.60;;;;;;;-10.41;76.27;101637.87;216757;1265;141008;-62
2024/01/10 02:33:26;;;;;;;107.10;50.80;;;;;;;-10.31;76.50;101638.17;216783;1265;140626;-66
2024/01/10 02:38:29;;;;;;;130.60;50.80;;;;;;;-10.28;76.22;101635.31;216630;1265;141743;-63
2024/01/10 02:43:33;;;;;;;106.90;47.20;;;;;;;-10.29;76.30;101627.80;217504;1266;141991;-62
2024/01/10 02:48:37;;;;;;;125.00;49.10;;;;;;;-10.28;76.32;101625.70;216849;1267;160445;-65
2024/01/10 02:53:41;;;;;;;110.00;47.00;;;;;;;-10.16;76.72;101621.13;216191;1265;140932;-66
2024/01/10 02:58:45;;;;;;;112.30;47.20;;;;;;;-10.08;76.33;101623.40;217340;1265;144254;-65
2024/01/10 03:03:47;;;;;;;129.40;52.30;;;;;;;-10.02;76.57;101623.48;216949;1265;140960;-63
2024/01/10 03:08:51;;;;;;;111.60;51.40;;;;;;;-9.85;76.76;101613.23;218873;1264;141067;-64
2024/01/10 03:14:07;;;;;;;130.70;52.20;;;;;;;-9.78;76.43;101614.16;218879;1267;141910;-61
2024/01/10 03:19:11;;;;;;;139.70;56.90;;;;;;;-9.82;75.83;101617.25;218823;1265;140822;-62
2024/01/10 03:24:13;;;;;;;140.40;53.50;;;;;;;-9.83;75.72;101615.06;217703;1266;141283;-65
2024/01/10 03:29:17;;;;;;;131.20;54.70;;;;;;;-9.97;75.19;101615.41;217000;1263;140720;-64
2024/01/10 03:34:19;;;;;;;145.80;62.80;;;;;;;-10.02;75.54;101612.49;216484;1264;140701;-64
2024/01/10 03:39:23;;;;;;;133.00;58.80;;;;;;;-9.98;75.82;101608.71;218299;1265;141174;-64
2024/01/10 03:44:27;;;;;;;115.20;51.30;;;;;;;-10.11;75.24;101610.64;216549;1265;142446;-65
2024/01/10 03:49:32;;;;;;;104.80;49.20;;;;;;;-10.27;75.62;101608.66;216738;1267;141033;-65
2024/01/10 03:54:38;;;;;;;103.70;44.50;;;;;;;-10.39;75.51;101598.77;217367;1265;140609;-63
2024/01/10 03:59:41;;;;;;;83.50;40.90;;;;;;;-10.50;75.83;101597.30;215998;1264;141072;-65
2024/01/10 04:04:44;;;;;;;91.10;41.10;;;;;;;-10.44;75.93;101598.30;217267;1267;141326;-65
2024/01/10 04:09:48;;;;;;;111.80;45.40;;;;;;;-10.40;75.57;101597.29;216320;1263;141913;-65
2024/01/10 04:14:51;;;;;;;88.50;43.80;;;;;;;-10.49;75.48;101592.30;216258;1264;141062;-65
2024/01/10 04:19:55;;;;;;;90.40;42.10;;;;;;;-10.47;75.80;101589.45;216492;1265;140377;-65
2024/01/10 04:24:59;;;;;;;105.70;39.20;;;;;;;-10.35;76.02;101593.84;217438;1264;140649;-64
2024/01/10 04:30:03;;;;;;;93.50;40.70;;;;;;;-10.24;75.93;101598.05;216113;1267;143147;-65
2024/01/10 04:35:07;;;;;;;94.00;39.00;;;;;;;-10.12;75.99;101602.23;216428;1265;140850;-64
2024/01/10 04:40:11;;;;;;;90.90;38.40;;;;;;;-10.22;75.30;101601.26;216597;1266;140625;-64
2024/01/10 04:45:14;;;;;;;108.30;44.80;;;;;;;-10.31;75.30;101596.95;216560;1265;140912;-62
2024/01/10 04:50:18;;;;;;;98.20;39.60;;;;;;;-10.22;75.91;101596.44;217769;1267;142458;-64
2024/01/10 04:55:22;;;;;;;104.00;41.50;;;;;;;-10.13;75.80;101591.95;217340;1265;142024;-64
2024/01/10 05:00:27;;;;;;;75.70;34.40;;;;;;;-10.29;74.86;101587.41;218435;1267;141979;-65
2024/01/10 05:05:30;;;;;;;89.80;33.90;;;;;;;-10.35;75.50;101586.78;216416;1267;141438;-64
2024/01/10 05:10:33;;;;;;;94.80;32.60;;;;;;;-10.27;75.68;101579.26;219087;1264;142512;-65
2024/01/10 05:15:36;;;;;;;79.50;33.70;;;;;;;-10.14;75.66;101583.23;218905;1264;152274;-65
2024/01/10 05:20:38;;;;;;;75.70;34.20;;;;;;;-10.03;75.80;101580.88;218855;1264;140752;-64
2024/01/10 05:25:41;;;;;;;97.00;40.40;;;;;;;-10.11;74.81;101580.02;216532;1265;140511;-65
2024/01/10 05:31:01;;;;;;;97.70;40.10;;;;;;;-10.17;74.96;101574.90;216140;1267;141271;-66
2024/01/10 05:36:05;;;;;;;90.70;38.30;;;;;;;-10.14;75.56;101572.05;216650;1267;140858;-65
2024/01/10 05:41:08;;;;;;;83.30;32.30;;;;;;;-10.13;75.09;101568.73;215982;1264;140873;-64
2024/01/10 05:46:11;;;;;;;82.50;36.40;;;;;;;-10.16;75.43;101562.16;216074;1267;140369;-63
2024/01/10 05:51:14;;;;;;;86.60;34.80;;;;;;;-10.12;75.38;101561.83;216993;1267;142161;-62
2024/01/10 05:56:18;;;;;;;68.80;30.10;;;;;;;-10.01;75.66;101560.35;216395;1267;140924;-63
2024/01/10 06:01:20;;;;;;;78.10;32.50;;;;;;;-9.90;75.89;101554.61;216786;1264;141879;-64
2024/01/10 06:06:24;;;;;;;69.50;31.50;;;;;;;-9.95;75.30;101541.88;216353;1267;142369;-63
2024/01/10 06:11:29;;;;;;;60.90;28.30;;;;;;;-9.95;75.55;101540.66;216554;1267;141537;-64
2024/01/10 06:16:32;;;;;;;64.50;26.30;;;;;;;-9.82;76.04;101540.01;215766;1267;140516;-66
2024/01/10 06:21:35;;;;;;;74.50;27.50;;;;;;;-9.65;76.09;101551.73;216940;1267;140565;-63
2024/01/10 06:26:38;;;;;;;73.20;27.60;;;;;;;-9.70;75.48;101550.85;216247;1264;140593;-65
2024/01/10 06:31:42;;;;;;;75.70;27.60;;;;;;;-9.74;75.58;101549.82;217022;1264;140841;-63
2024/01/10 06:36:46;;;;;;;66.70;26.70;;;;;;;-9.76;75.23;101546.30;216625;1266;140395;-65
2024/01/10 06:41:49;;;;;;;73.60;26.30;;;;;;;-9.84;75.13;101542.69;216257;1268;141381;-62
2024/01/10 06:46:52;;;;;;;67.70;29.50;;;;;;;-9.88;74.91;101538.88;217243;1264;143140;-63
2024/01/10 06:51:55;;;;;;;62.30;25.80;;;;;;;-9.96;74.93;101534.88;216261;1264;140765;-63
2024/01/10 06:56:58;;;;;;;72.10;28.80;;;;;;;-9.87;75.44;101534.19;215961;1270;140678;-65
2024/01/10 07:02:02;;;;;;;77.90;34.50;;;;;;;-9.80;75.41;101529.64;219102;1264;141386;-63
2024/01/10 07:07:05;;;;;;;66.50;30.50;;;;;;;-9.87;75.69;101527.32;218981;1264;140967;-65
2024/01/10 07:12:08;;;;;;;87.20;34.60;;;;;;;-9.84;75.78;101530.80;218942;1264;140288;-65
2024/01/10 07:17:11;;;;;;;67.50;30.40;;;;;;;-9.83;75.72;101539.03;219143;1264;140782;-63
2024/01/10 07:22:15;;;;;;;65.50;28.10;;;;;;;-9.72;75.95;101534.80;218777;1264;140780;-63
2024/01/10 07:27:18;;;;;;;69.60;29.30;;;;;;;-9.60;75.61;101531.38;215771;1264;140392;-63
2024/01/10 07:32:20;;;;;;;58.10;26.30;;;;;;;-9.50;75.60;101533.91;216852;1267;140341;-63
2024/01/10 07:37:23;;;;;;;63.30;28.70;;;;;;;-9.44;75.42;101537.95;216019;1270;140446;-62
2024/01/10 07:42:26;;;;;;;79.80;32.10;;;;;;;-9.32;75.82;101536.23;216109;1269;140649;-63
2024/01/10 07:47:28;;;;;;;62.00;28.10;;;;;;;-9.15;75.89;101538.63;218064;1264;140305;-63
2024/01/10 07:52:32;;;;;;;69.30;28.80;;;;;;;-9.09;75.87;101532.33;217420;1264;140092;-62
2024/01/10 07:57:36;;;;;;;62.80;27.40;;;;;;;-8.91;76.03;101529.98;216085;1267;140465;-63
2024/01/10 08:02:39;;;;;;;58.00;28.40;;;;;;;-8.83;75.75;101533.60;216447;1262;142249;-64
2024/01/10 08:07:42;;;;;;;52.00;25.10;;;;;;;-8.69;76.03;101540.55;217709;1264;140975;-62
2024/01/10 08:12:47;;;;;;;62.90;26.10;;;;;;;-8.47;76.20;101552.65;216072;1264;141120;-63
2024/01/10 08:17:53;;;;;;;57.40;27.50;;;;;;;-8.24;76.18;101558.48;216114;1264;140763;-63
2024/01/10 08:22:57;;;;;;;69.50;28.90;;;;;;;-8.05;76.18;101559.33;216593;1264;141095;-62
2024/01/10 08:28:01;;;;;;;66.80;30.10;;;;;;;-7.90;76.32;101561.53;215959;1267;139760;-63
2024/01/10 08:33:04;;;;;;;66.20;29.70;;;;;;;-7.84;76.43;101564.85;217461;1264;139810;-64
2024/01/10 08:38:07;;;;;;;57.70;28.20;;;;;;;-7.79;76.07;101568.09;216956;1267;139560;-62
2024/01/10 08:43:11;;;;;;;58.00;29.00;;;;;;;-7.78;76.23;101564.26;216396;1264;139830;-62
2024/01/10 08:48:14;;;;;;;46.70;20.20;;;;;;;-7.72;76.04;101563.83;216066;1269;141391;-62
2024/01/10 08:53:22;;;;;;;67.50;26.10;;;;;;;-7.69;75.77;101557.14;217550;1263;141674;-63
2024/01/10 08:58:28;;;;;;;52.40;22.90;;;;;;;-7.58;76.04;101553.82;216841;1264;141174;-63
2024/01/10 09:03:31;;;;;;;44.10;24.40;;;;;;;-7.40;75.94;101550.98;218979;1264;140683;-65
2024/01/10 09:08:34;;;;;;;49.60;21.90;;;;;;;-7.15;75.98;101548.36;218992;1264;140967;-62
2024/01/10 09:13:39;;;;;;;58.90;25.30;;;;;;;-6.85;75.91;101555.13;219031;1264;140713;-64
2024/01/10 09:18:43;;;;;;;52.00;23.70;;;;;;;-6.54;75.83;101561.82;216785;1264;140349;-62
2024/01/10 09:23:48;;;;;;;43.30;22.30;;;;;;;-6.39;75.49;101555.64;217251;1264;140562;-65
2024/01/10 09:28:50;;;;;;;49.70;24.30;;;;;;;-6.30;75.40;101549.77;217589;1267;140259;-63
2024/01/10 09:33:54;;;;;;;59.30;28.40;;;;;;;-6.20;75.46;101550.11;215934;1264;139760;-62
2024/01/10 09:38:57;;;;;;;60.70;25.00;;;;;;;-6.05;75.34;101552.21;217088;1264;140275;-62
2024/01/10 09:44:00;;;;;;;53.10;25.50;;;;;;;-5.90;75.35;101553.14;217055;1264;140982;-64
2024/01/10 09:49:05;;;;;;;32.60;12.40;;;;;;;-5.79;74.96;101544.17;215819;1264;141563;-64
2024/01/10 09:54:08;;;;;;;40.30;18.70;;;;;;;-5.73;74.77;101535.17;216123;1264;139876;-64
2024/01/10 09:59:12;;;;;;;18.40;9.30;;;;;;;-5.65;74.90;101530.77;216034;1267;142006;-63
2024/01/10 10:04:19;;;;;;;51.40;22.00;;;;;;;-5.57;74.30;101531.54;216941;1264;139698;-64
2024/01/10 10:09:24;;;;;;;40.10;20.20;;;;;;;-5.48;74.39;101526.83;215866;1264;140800;-64
2024/01/10 10:14:30;;;;;;;46.50;19.10;;;;;;;-5.31;74.31;101525.46;216575;1264;140238;-63
2024/01/10 10:19:34;;;;;;;39.30;16.30;;;;;;;-5.14;74.15;101518.76;216098;1264;140116;-63
2024/01/10 10:24:48;;;;;;;34.60;16.50;;;;;;;-4.95;74.27;101517.28;215946;1267;142093;-63
2024/01/10 10:29:52;;;;;;;33.00;13.40;;;;;;;-4.74;74.07;101508.90;216322;1264;348143;-63
2024/01/10 10:34:56;;;;;;;33.80;14.60;;;;;;;-4.56;73.68;101498.61;217444;1264;142116;-64
2024/01/10 10:39:59;;;;;;;40.40;17.90;;;;;;;-4.30;73.44;101493.14;215952;1267;140038;-63
2024/01/10 10:45:04;;;;;;;48.40;21.00;;;;;;;-4.04;73.33;101483.67;216633;1264;140390;-64
2024/01/10 10:50:13;;;;;;;47.90;19.50;;;;;;;-3.83;72.96;101482.27;216613;1267;140793;-65
2024/01/10 10:55:18;;;;;;;45.90;17.70;;;;;;;-3.62;72.97;101476.60;215962;1264;139991;-64
2024/01/10 11:00:26;;;;;;;35.00;17.30;;;;;;;-3.43;72.63;101473.09;219001;1264;140107;-64
2024/01/10 11:05:32;;;;;;;29.80;17.00;;;;;;;-3.30;71.77;101474.92;218846;1264;141062;-64
2024/01/10 11:10:42;;;;;;;32.70;16.40;;;;;;;-3.20;71.18;101474.09;218672;1264;141272;-63
2024/01/10 11:16:15;;;;;;;25.90;12.70;;;;;;;-3.03;71.00;101472.92;216855;1264;141815;-64
2024/01/10 11:21:29;;;;;;;30.30;13.30;;;;;;;-2.86;70.54;101478.06;216462;1267;140111;-64
2024/01/10 11:26:33;;;;;;;23.60;12.70;;;;;;;-2.78;69.99;101475.36;217337;1264;140927;-64
2024/01/10 11:31:39;;;;;;;33.20;13.90;;;;;;;-2.65;69.72;101472.72;216511;1267;140939;-65
2024/01/10 11:37:13;;;;;;;42.20;16.40;;;;;;;-2.60;69.40;101464.92;215763;1267;141059;-65
2024/01/10 11:42:24;;;;;;;30.00;15.10;;;;;;;-2.50;69.62;101457.56;216029;1264;140112;-64
2024/01/10 11:47:27;;;;;;;41.00;18.70;;;;;;;-2.35;69.49;101447.83;216653;1264;140786;-63
2024/01/10 11:52:33;;;;;;;37.80;14.30;;;;;;;-2.27;68.94;101439.58;215836;1267;140523;-62
2024/01/10 11:57:38;;;;;;;38.80;19.20;;;;;;;-2.21;68.72;101438.42;215867;1263;140984;-65
2024/01/10 12:02:42;;;;;;;44.30;16.30;;;;;;;-2.16;68.33;101431.14;216931;1263;139861;-64
2024/01/10 12:07:51;;;;;;;39.90;18.50;;;;;;;-2.16;68.24;101426.58;216153;1263;139776;-63
2024/01/10 12:12:55;;;;;;;32.70;15.60;;;;;;;-2.14;67.75;101421.89;216413;1264;139832;-65
2024/01/10 12:17:59;;;;;;;36.00;16.90;;;;;;;-2.15;67.43;101418.31;216510;1264;139946;-64
2024/01/10 12:23:03;;;;;;;34.20;15.10;;;;;;;-2.24;66.97;101415.48;216093;1264;142080;-63
2024/01/10 12:28:07;;;;;;;29.90;14.90;;;;;;;-2.25;67.02;101417.14;216020;1264;140593;-64
2024/01/10 12:33:11;;;;;;;29.40;14.00;;;;;;;-2.22;66.76;101409.27;217626;1264;140618;-63
2024/01/10 12:38:14;;;;;;;30.00;16.80;;;;;;;-2.19;66.79;101402.41;217060;1264;140284;-63
2024/01/10 12:43:19;;;;;;;34.50;19.20;;;;;;;-2.13;66.37;101395.67;215962;1264;140207;-63
2024/01/10 12:48:23;;;;;;;31.00;15.30;;;;;;;-2.09;66.37;101391.20;218338;1264;140051;-65
2024/01/10 12:53:28;;;;;;;42.60;18.80;;;;;;;-2.00;66.05;101388.45;219124;1264;140791;-67
2024/01/10 12:58:33;;;;;;;40.70;17.40;;;;;;;-1.86;65.74;101382.14;218858;1264;141165;-68
2024/01/10 13:03:36;;;;;;;40.60;17.80;;;;;;;-1.78;65.23;101377.00;219036;1264;140142;-68
2024/01/10 13:08:40;;;;;;;37.30;18.30;;;;;;;-1.68;65.14;101364.97;218925;1263;140200;-67
2024/01/10 13:13:43;;;;;;;40.00;19.00;;;;;;;-1.61;65.20;101355.36;216053;1264;140000;-66
2024/01/10 13:18:47;;;;;;;35.50;15.70;;;;;;;-1.57;64.83;101348.27;215625;1264;141312;-66
2024/01/10 13:23:51;;;;;;;37.10;19.40;;;;;;;-1.59;65.05;101351.90;216005;1264;140313;-66
2024/01/10 13:28:54;;;;;;;31.80;14.60;;;;;;;-1.59;64.72;101352.59;215850;1264;139477;-65
2024/01/10 13:33:58;;;;;;;34.10;16.20;;;;;;;-1.64;64.70;101358.90;216911;1263;140583;-65
2024/01/10 13:39:03;;;;;;;29.10;13.50;;;;;;;-1.67;64.44;101357.94;216767;1264;140181;-65
2024/01/10 13:44:09;;;;;;;35.40;18.60;;;;;;;-1.74;64.22;101352.45;215791;1267;139816;-66
2024/01/10 13:49:12;;;;;;;38.20;17.50;;;;;;;-1.76;64.19;101351.27;217093;1267;140580;-64
2024/01/10 13:54:16;;;;;;;31.40;16.40;;;;;;;-1.82;64.12;101347.19;215704;1264;141165;-64
2024/01/10 13:59:19;;;;;;;44.70;20.00;;;;;;;-1.95;63.94;101350.59;216139;1264;206944;-64
2024/01/10 14:04:23;;;;;;;25.80;12.20;;;;;;;-2.09;63.76;101351.48;216051;1264;140021;-64
2024/01/10 14:09:27;;;;;;;57.20;23.40;;;;;;;-2.25;63.55;101342.91;216650;1265;139635;-64
2024/01/10 14:14:31;;;;;;;45.60;25.70;;;;;;;-2.34;63.93;101338.16;216024;1264;140692;-64
2024/01/10 14:19:40;;;;;;;53.30;23.80;;;;;;;-2.43;64.23;101337.59;216264;1264;139986;-65
2024/01/10 14:24:44;;;;;;;79.40;25.90;;;;;;;-2.53;64.40;101333.67;216777;1264;139990;-64
2024/01/10 14:29:48;;;;;;;51.60;24.10;;;;;;;-2.61;64.64;101326.46;217043;1264;140478;-63
2024/01/10 14:34:52;;;;;;;54.50;23.90;;;;;;;-2.74;64.64;101321.77;216542;1265;139927;-63
2024/01/10 14:39:56;;;;;;;56.20;24.80;;;;;;;-2.86;64.78;101325.83;216317;1264;140850;-64
2024/01/10 14:45:03;;;;;;;39.80;22.20;;;;;;;-2.97;64.95;101323.33;218734;1264;141553;-64
2024/01/10 14:50:07;;;;;;;51.90;25.10;;;;;;;-3.11;65.24;101325.45;218890;1264;140572;-64
2024/01/10 14:55:11;;;;;;;48.30;23.70;;;;;;;-3.23;65.34;101332.61;217283;1263;139717;-67
2024/01/10 15:00:15;;;;;;;55.00;22.30;;;;;;;-3.35;65.72;101331.72;216465;1264;140258;-66
2024/01/10 15:05:18;;;;;;;45.50;24.00;;;;;;;-3.49;65.98;101324.71;217180;1262;140078;-63
2024/01/10 15:10:21;;;;;;;45.50;20.90;;;;;;;-3.65;66.36;101322.34;217244;1264;139852;-62
2024/01/10 15:15:23;;;;;;;53.40;20.80;;;;;;;-3.85;66.33;101325.60;216820;1264;139866;-62
2024/01/10 15:20:29;;;;;;;44.70;21.10;;;;;;;-4.06;66.90;101325.31;216631;1264;141014;-63
2024/01/10 15:25:33;;;;;;;43.90;20.00;;;;;;;-4.23;67.18;101320.70;216955;1265;140121;-62
2024/01/10 15:30:36;;;;;;;41.70;21.20;;;;;;;-4.43;67.23;101324.40;216523;1264;140907;-61
2024/01/10 15:35:50;;;;;;;48.50;25.00;;;;;;;-4.58;67.50;101329.39;218009;1264;140523;-63
2024/01/10 15:40:53;;;;;;;60.00;22.90;;;;;;;-4.66;67.71;101327.18;216676;1267;139998;-62
2024/01/10 15:45:55;;;;;;;47.80;23.90;;;;;;;-4.75;67.79;101318.88;216669;1265;140310;-62
2024/01/10 15:50:58;;;;;;;43.00;20.10;;;;;;;-4.89;67.90;101307.27;216157;1265;140341;-63
2024/01/10 15:56:01;;;;;;;59.40;23.50;;;;;;;-5.06;67.98;101295.55;216749;1267;142961;-63
2024/01/10 16:01:05;;;;;;;50.80;23.30;;;;;;;-5.20;68.12;101293.27;216739;1264;141064;-62
2024/01/10 16:06:09;;;;;;;50.90;24.80;;;;;;;-5.27;68.26;101289.06;217321;1264;141693;-62
2024/01/10 16:11:13;;;;;;;58.10;24.10;;;;;;;-5.35;68.47;101291.27;217057;1267;139799;-62
2024/01/10 16:16:21;;;;;;;62.60;27.70;;;;;;;-5.36;69.09;101279.42;216140;1265;139928;-62
2024/01/10 16:21:24;;;;;;;50.30;25.20;;;;;;;-5.45;69.19;101275.95;215916;1264;140383;-61
2024/01/10 16:26:27;;;;;;;52.20;23.50;;;;;;;-5.54;69.45;101269.23;216904;1265;141443;-62
2024/01/10 16:31:30;;;;;;;42.90;20.40;;;;;;;-5.66;69.43;101265.86;217787;1264;140339;-63
2024/01/10 16:36:33;;;;;;;60.50;24.60;;;;;;;-5.80;69.65;101260.48;217751;1267;140764;-63
2024/01/10 16:41:36;;;;;;;39.80;18.20;;;;;;;-5.90;69.65;101252.46;218026;1267;143464;-67
2024/01/10 16:46:39;;;;;;;53.80;21.60;;;;;;;-6.02;69.84;101252.11;218989;1264;140822;-65
2024/01/10 16:51:42;;;;;;;65.90;25.30;;;;;;;-6.11;70.11;101248.89;219006;1264;140344;-65
2024/01/10 16:56:44;;;;;;;51.90;20.00;;;;;;;-6.15;70.56;101240.80;216874;1264;142109;-67
2024/01/10 17:01:47;;;;;;;57.20;23.60;;;;;;;-6.21;70.63;101240.27;218453;1265;140593;-64
2024/01/10 17:06:51;;;;;;;57.20;22.50;;;;;;;-6.23;70.59;101231.79;216945;1264;140712;-63
2024/01/10 17:11:54;;;;;;;47.70;22.40;;;;;;;-6.22;70.65;101221.15;215975;1264;141232;-64
2024/01/10 17:16:57;;;;;;;53.40;25.50;;;;;;;-6.19;70.57;101225.11;217335;1264;142000;-63
2024/01/10 17:22:00;;;;;;;82.40;33.90;;;;;;;-6.15;71.06;101226.27;217695;1267;141478;-64
2024/01/10 17:27:04;;;;;;;72.90;36.70;;;;;;;-6.08;71.51;101224.08;216091;1263;139640;-63
2024/01/10 17:32:08;;;;;;;74.10;33.20;;;;;;;-6.05;71.53;101230.16;217072;1263;139717;-63
2024/01/10 17:37:13;;;;;;;77.90;36.40;;;;;;;-6.11;71.41;101223.05;216845;1264;139968;-62
2024/01/10 17:42:15;;;;;;;62.30;30.80;;;;;;;-6.24;71.59;101219.73;216525;1265;140307;-65
2024/01/10 17:47:18;;;;;;;74.80;27.40;;;;;;;-6.37;71.68;101219.30;216696;1265;140561;-63
2024/01/10 17:52:21;;;;;;;56.80;28.60;;;;;;;-6.51;71.81;101214.91;216241;1267;142301;-63
2024/01/10 17:57:26;;;;;;;58.60;25.90;;;;;;;-6.61;71.90;101211.35;216451;1264;139964;-63
2024/01/10 18:02:30;;;;;;;51.30;21.80;;;;;;;-6.72;72.08;101211.28;216259;1264;140126;-64
2024/01/10 18:07:33;;;;;;;54.30;23.20;;;;;;;-6.80;72.23;101210.02;216760;1264;141372;-63
2024/01/10 18:12:37;;;;;;;50.40;26.40;;;;;;;-6.76;72.24;101208.29;217114;1264;140819;-63
2024/01/10 18:17:40;;;;;;;57.80;25.40;;;;;;;-6.70;72.44;101199.59;215953;1264;141409;-64
2024/01/10 18:22:43;;;;;;;52.60;23.80;;;;;;;-6.72;72.07;101189.31;216935;1265;141602;-66
2024/01/10 18:27:46;;;;;;;79.90;31.10;;;;;;;-6.76;72.08;101184.42;216408;1265;142048;-64
2024/01/10 18:32:51;;;;;;;69.00;31.80;;;;;;;-6.77;72.43;101179.64;216110;1265;140159;-63
2024/01/10 18:37:54;;;;;;;70.70;29.70;;;;;;;-6.77;72.60;101183.42;218906;1264;140841;-66
2024/01/10 18:42:56;;;;;;;74.00;31.60;;;;;;;-6.80;72.63;101177.89;218984;1265;140885;-65
2024/01/10 18:47:59;;;;;;;83.90;36.30;;;;;;;-6.91;72.60;101174.04;219066;1264;140424;-63
2024/01/10 18:53:03;;;;;;;67.70;32.90;;;;;;;-6.98;72.69;101182.17;218810;1264;140524;-64
2024/01/10 18:58:10;;;;;;;61.20;31.10;;;;;;;-7.01;72.74;101180.13;217036;1264;139902;-63
2024/01/10 19:03:12;;;;;;;88.20;37.40;;;;;;;-7.04;72.88;101177.59;217468;1264;139985;-63
2024/01/10 19:08:16;;;;;;;78.80;35.00;;;;;;;-7.04;73.20;101181.83;217208;1264;140719;-65
2024/01/10 19:13:21;;;;;;;84.60;38.30;;;;;;;-6.94;73.07;101183.38;216346;1265;141179;-66
2024/01/10 19:18:24;;;;;;;79.20;36.70;;;;;;;-6.90;72.98;101186.05;215716;1264;140471;-66
2024/01/10 19:23:29;;;;;;;102.50;41.00;;;;;;;-6.79;73.18;101188.17;216666;1265;141192;-65
2024/01/10 19:28:32;;;;;;;98.50;47.50;;;;;;;-6.70;73.02;101199.61;216081;1264;141103;-65
2024/01/10 19:33:36;;;;;;;81.70;39.20;;;;;;;-6.74;73.02;101202.24;216077;1267;139860;-64
2024/01/10 19:38:40;;;;;;;81.20;39.00;;;;;;;-6.86;73.01;101199.45;217733;1264;139835;-65
2024/01/10 19:43:46;;;;;;;88.10;38.40;;;;;;;-6.96;73.17;101186.73;215883;1267;140204;-65
2024/01/10 19:48:50;;;;;;;67.40;30.00;;;;;;;-7.07;73.18;101175.83;216517;1263;141922;-66
2024/01/10 19:53:53;;;;;;;65.20;30.00;;;;;;;-7.22;73.31;101176.80;216464;1265;139696;-64
2024/01/10 19:58:56;;;;;;;74.20;33.40;;;;;;;-7.35;73.46;101164.79;215821;1267;140867;-64
2024/01/10 20:03:59;;;;;;;100.40;42.80;;;;;;;-7.38;73.47;101164.98;216792;1267;141400;-64
2024/01/10 20:09:03;;;;;;;95.90;40.60;;;;;;;-7.32;73.61;101151.84;215995;1267;141094;-64
2024/01/10 20:14:06;;;;;;;104.00;42.00;;;;;;;-7.22;73.84;101159.01;216543;1267;140623;-64
2024/01/10 20:19:10;;;;;;;109.50;50.00;;;;;;;-7.03;74.02;101158.84;216705;1265;141049;-63
2024/01/10 20:24:13;;;;;;;116.70;52.40;;;;;;;-7.01;73.91;101157.30;215873;1264;140845;-63
2024/01/10 20:29:15;;;;;;;118.90;58.50;;;;;;;-7.07;73.86;101154.40;215993;1265;140175;-64
2024/01/10 20:34:19;;;;;;;132.00;56.90;;;;;;;-7.05;74.10;101145.98;218985;1264;140238;-64
2024/01/10 20:39:23;;;;;;;131.50;57.80;;;;;;;-6.97;74.38;101148.27;216636;1264;233462;-64
2024/01/10 20:44:29;;;;;;;144.10;59.30;;;;;;;-6.93;74.25;101146.64;216328;1265;140226;-63
2024/01/10 20:49:32;;;;;;;116.70;50.70;;;;;;;-6.92;74.28;101143.13;217002;1267;141521;-62
2024/01/10 20:54:36;;;;;;;139.00;57.40;;;;;;;-6.93;74.22;101142.48;216280;1264;139996;-62
2024/01/10 20:59:42;;;;;;;134.50;61.30;;;;;;;-6.93;74.12;101133.89;217504;1265;140547;-63
2024/01/10 21:04:46;;;;;;;154.70;64.50;;;;;;;-6.86;73.96;101134.17;216403;1264;232489;-63
2024/01/10 21:09:48;;;;;;;149.40;60.90;;;;;;;-6.71;74.32;101129.64;216089;1267;140533;-62
2024/01/10 21:14:55;;;;;;;133.10;60.00;;;;;;;-6.59;74.06;101120.24;216082;1267;142799;-63
2024/01/10 21:19:57;;;;;;;151.60;67.60;;;;;;;-6.48;74.24;101122.06;217162;1267;140651;-63
2024/01/10 21:25:01;;;;;;;160.10;75.60;;;;;;;-6.36;74.34;101128.74;216159;1265;140533;-65
2024/01/10 21:30:04;;;;;;;184.20;75.90;;;;;;;-6.34;74.17;101128.30;216359;1265;140092;-63
2024/01/10 21:35:08;;;;;;;159.70;71.40;;;;;;;-6.39;74.00;101103.48;216340;1264;140723;-66
2024/01/10 21:40:11;;;;;;;154.00;69.90;;;;;;;-6.49;73.93;101086.27;215996;1265;141264;-62
2024/01/10 21:45:14;;;;;;;149.00;68.20;;;;;;;-6.54;74.28;101083.80;215953;1266;140159;-63
2024/01/10 21:50:16;;;;;;;153.00;66.10;;;;;;;-6.60;73.97;101082.33;216702;1267;140273;-62
2024/01/10 21:55:20;;;;;;;137.40;59.10;;;;;;;-6.64;74.22;101070.94;215950;1267;142282;-63
2024/01/10 22:00:25;;;;;;;138.90;66.00;;;;;;;-6.67;74.21;101072.86;215895;1265;140053;-64
2024/01/10 22:05:29;;;;;;;141.60;63.60;;;;;;;-6.67;73.99;101067.02;216912;1263;140173;-63
2024/01/10 22:10:32;;;;;;;157.30;69.90;;;;;;;-6.63;73.76;101050.67;216550;1267;141717;-64
2024/01/10 22:15:36;;;;;;;146.90;68.60;;;;;;;-6.52;73.72;101060.02;217226;1267;142063;-66
2024/01/10 22:20:39;;;;;;;172.70;69.20;;;;;;;-6.36;73.84;101047.99;218852;1264;141253;-65